Terminal Aerodrome Forecast
Issued by NWS Springfield, MO

Home | Current Version | Previous Version | Text Only | Print | Product List | Glossary On
Versions: 1 2 3 4 5 6 7 8 9 10 11 12 13 14 15 16 17 18 19 20 21 22
999
FTUS43 KSGF 251454 AAD
TAFSGF
TAF AMD
KSGF 251454Z 2515/2612 09011KT P6SM VCTS BKN035CB
      TEMPO 2516/2519 3SM TSRA BR BKN020CB
     FM252000 03007KT P6SM BKN200
     FM260600 09005KT P6SM BKN200=

USA.gov is the U.S. government's official web portal to all federal, state and local government web resources and services.